createdAt,value
2022-12-03T00:01:46.393Z,7.38
2022-12-03T00:04:32.205Z,7.72
2022-12-03T00:07:18.096Z,7.38
2022-12-03T00:10:05.558Z,7.82
2022-12-03T00:12:51.092Z,7.47
2022-12-03T00:15:36.629Z,8.40
2022-12-03T00:18:22.205Z,7.65
2022-12-03T00:21:07.960Z,7.60
2022-12-03T00:23:53.777Z,7.55
2022-12-03T00:26:39.343Z,7.70
2022-12-03T00:29:25.222Z,7.78
2022-12-03T00:32:11.518Z,7.38
2022-12-03T00:34:57.581Z,7.72
2022-12-03T00:37:43.707Z,7.55
2022-12-03T00:40:30.476Z,8.05
2022-12-03T00:43:15.919Z,8.07
2022-12-03T00:46:02.754Z,8.18
2022-12-03T00:48:48.942Z,8.02
2022-12-03T00:51:34.460Z,7.68
2022-12-03T00:54:20.071Z,7.65
2022-12-03T00:57:06.176Z,8.25
2022-12-03T00:59:52.940Z,8.10
2022-12-03T01:02:38.760Z,8.88
2022-12-03T01:05:24.594Z,7.72
2022-12-03T01:08:10.375Z,8.80
2022-12-03T01:10:56.380Z,8.70
2022-12-03T01:13:42.227Z,7.82
2022-12-03T01:16:28.288Z,8.07
2022-12-03T01:19:16.447Z,8.63
2022-12-03T01:22:02.482Z,8.90
2022-12-03T01:24:48.131Z,8.00
2022-12-03T01:27:33.878Z,8.82
2022-12-03T01:30:20.539Z,9.27
2022-12-03T01:33:06.776Z,9.02
2022-12-03T01:35:52.496Z,8.77
2022-12-03T01:38:38.447Z,9.10
2022-12-03T01:41:25.064Z,9.43
2022-12-03T01:44:26.281Z,9.13
2022-12-03T01:47:18.441Z,9.68
2022-12-03T01:50:15.533Z,9.40
2022-12-03T01:53:03.029Z,9.57
2022-12-03T01:55:49.648Z,9.90
2022-12-03T01:58:35.594Z,10.20
2022-12-03T02:01:21.521Z,9.07
2022-12-03T02:04:13.218Z,9.43
2022-12-03T02:07:29.902Z,9.70
2022-12-03T02:10:20.030Z,10.10
2022-12-03T02:13:10.674Z,9.25
2022-12-03T02:15:56.400Z,10.00
2022-12-03T02:18:42.975Z,8.98
2022-12-03T02:21:53.286Z,9.82
2022-12-03T02:24:47.428Z,9.88
2022-12-03T02:27:33.198Z,9.48
2022-12-03T02:30:21.119Z,8.95
2022-12-03T02:33:07.084Z,8.63
2022-12-03T02:35:53.856Z,9.05
2022-12-03T02:38:41.894Z,9.00
2022-12-03T02:41:46.531Z,9.70
2022-12-03T02:44:32.423Z,9.82
2022-12-03T02:47:21.264Z,10.48
2022-12-03T02:50:08.905Z,10.02
2022-12-03T02:52:57.509Z,10.27
2022-12-03T02:55:44.938Z,9.05
2022-12-03T02:58:34.261Z,9.38
2022-12-03T03:01:20.357Z,9.57
2022-12-03T03:04:08.023Z,9.57
2022-12-03T03:06:53.761Z,8.90
2022-12-03T03:09:39.701Z,9.32
2022-12-03T03:12:26.044Z,10.00
2022-12-03T03:15:13.102Z,9.60
2022-12-03T03:17:59.047Z,9.83
2022-12-03T03:20:45.051Z,10.10
2022-12-03T03:23:31.531Z,10.90
2022-12-03T03:26:18.136Z,9.95
2022-12-03T03:29:04.287Z,10.30
2022-12-03T03:31:50.770Z,9.70
2022-12-03T03:34:36.681Z,9.30
2022-12-03T03:37:24.055Z,10.30
2022-12-03T03:40:10.965Z,9.80
2022-12-03T03:42:57.672Z,9.95
2022-12-03T03:45:44.703Z,9.52
2022-12-03T03:48:34.050Z,9.27
2022-12-03T03:51:20.414Z,9.30
2022-12-03T03:54:07.113Z,9.27
2022-12-03T03:56:53.783Z,9.48
2022-12-03T03:59:40.171Z,9.15
2022-12-03T04:02:28.151Z,9.65
2022-12-03T04:05:20.535Z,9.35
2022-12-03T04:08:06.703Z,9.10
2022-12-03T04:11:11.866Z,8.68
2022-12-03T04:13:57.634Z,8.60
2022-12-03T04:16:43.465Z,8.63
2022-12-03T04:19:29.012Z,8.60
2022-12-03T04:22:32.847Z,7.80
2022-12-03T04:25:37.619Z,8.18
2022-12-03T04:28:42.028Z,8.10
2022-12-03T04:31:46.801Z,7.95
2022-12-03T04:34:51.859Z,7.65
2022-12-03T04:37:37.959Z,8.00
2022-12-03T04:40:42.926Z,7.82
2022-12-03T04:43:29.928Z,7.82
2022-12-03T04:46:16.048Z,8.00
2022-12-03T04:49:01.674Z,7.72
2022-12-03T04:51:48.063Z,8.27
2022-12-03T04:54:34.283Z,9.07
2022-12-03T04:57:20.174Z,8.13
2022-12-03T05:00:06.290Z,8.23
2022-12-03T05:02:52.574Z,8.18
2022-12-03T05:05:38.620Z,8.50
2022-12-03T05:08:24.646Z,7.95
2022-12-03T05:11:10.591Z,8.23
2022-12-03T05:13:56.775Z,8.43
2022-12-03T05:16:43.063Z,7.95
2022-12-03T05:19:47.536Z,8.18
2022-12-03T05:22:33.221Z,8.55
2022-12-03T05:25:18.766Z,8.75
2022-12-03T05:28:04.803Z,8.98
2022-12-03T05:30:51.172Z,8.55
2022-12-03T05:33:42.466Z,8.02
2022-12-03T05:36:30.311Z,9.02
2022-12-03T05:39:16.979Z,8.55
2022-12-03T05:42:21.971Z,9.23
2022-12-03T05:45:08.155Z,9.40
2022-12-03T05:47:55.051Z,9.20
2022-12-03T05:50:43.798Z,9.23
2022-12-03T05:53:35.481Z,8.85
2022-12-03T05:56:20.920Z,8.57
2022-12-03T05:59:06.764Z,9.30
2022-12-03T06:01:52.925Z,8.80
2022-12-03T06:04:39.012Z,9.45
2022-12-03T06:07:24.719Z,8.93
2022-12-03T06:10:12.963Z,9.02
2022-12-03T06:12:58.600Z,9.45
2022-12-03T06:15:44.925Z,9.70
2022-12-03T06:18:32.092Z,9.73
2022-12-03T06:21:18.715Z,9.65
2022-12-03T06:24:05.074Z,10.18
2022-12-03T06:26:50.947Z,9.93
2022-12-03T06:29:36.802Z,10.48
2022-12-03T06:32:23.123Z,10.63
2022-12-03T06:35:09.784Z,9.27
2022-12-03T06:37:57.535Z,10.32
2022-12-03T06:40:43.948Z,10.32
2022-12-03T06:43:31.053Z,9.82
2022-12-03T06:46:16.823Z,10.30
2022-12-03T06:49:03.494Z,9.60
2022-12-03T06:51:49.024Z,9.93
2022-12-03T06:54:34.527Z,10.68
2022-12-03T06:57:20.028Z,10.88
2022-12-03T07:00:08.759Z,11.18
2022-12-03T07:02:55.013Z,10.88
2022-12-03T07:05:40.516Z,10.88
2022-12-03T07:08:26.427Z,10.70
2022-12-03T07:11:31.073Z,10.30
2022-12-03T07:14:16.894Z,9.88
2022-12-03T07:17:02.648Z,10.40
2022-12-03T07:19:48.868Z,10.52
2022-12-03T07:22:34.825Z,10.45
2022-12-03T07:25:23.415Z,10.60
2022-12-03T07:28:09.316Z,10.63
2022-12-03T07:30:55.153Z,10.68
2022-12-03T07:33:40.961Z,10.38
2022-12-03T07:36:26.357Z,10.43
2022-12-03T07:39:13.560Z,10.93
2022-12-03T07:41:59.363Z,10.68
2022-12-03T07:44:45.080Z,10.88
2022-12-03T07:47:30.887Z,11.15
2022-12-03T07:50:16.882Z,11.43
2022-12-03T07:53:03.066Z,11.10
2022-12-03T07:55:49.204Z,11.95
2022-12-03T07:58:35.024Z,12.60
2022-12-03T08:01:21.006Z,11.65
2022-12-03T08:04:06.702Z,11.45
2022-12-03T08:06:52.698Z,11.88
2022-12-03T08:09:40.912Z,12.75
2022-12-03T08:12:40.136Z,12.20
2022-12-03T08:15:31.170Z,12.45
2022-12-03T08:18:22.059Z,12.38
2022-12-03T08:21:16.888Z,13.55
2022-12-03T08:24:16.178Z,12.45
2022-12-03T08:27:02.723Z,12.93
2022-12-03T08:29:48.736Z,13.00
2022-12-03T08:32:35.024Z,12.68
2022-12-03T08:35:27.530Z,13.50
2022-12-03T08:38:13.524Z,12.73
2022-12-03T08:40:59.597Z,12.32
2022-12-03T08:43:46.424Z,12.95
2022-12-03T08:46:31.980Z,14.05
2022-12-03T08:49:20.581Z,13.90
2022-12-03T08:52:18.947Z,13.90
2022-12-03T08:55:46.119Z,13.05
2022-12-03T08:58:34.721Z,12.68
2022-12-03T09:01:39.087Z,13.93
2022-12-03T09:04:25.533Z,12.85
2022-12-03T09:07:11.331Z,13.43
2022-12-03T09:09:56.745Z,13.23
2022-12-03T09:12:46.137Z,13.25
2022-12-03T09:15:48.558Z,13.45
2022-12-03T09:18:35.033Z,13.27
2022-12-03T09:21:20.526Z,13.80
2022-12-03T09:24:06.820Z,13.35
2022-12-03T09:26:53.143Z,13.75
2022-12-03T09:29:38.847Z,13.32
2022-12-03T09:32:25.267Z,12.90
2022-12-03T09:35:11.143Z,13.60
2022-12-03T09:37:57.061Z,13.52
2022-12-03T09:40:42.660Z,14.23
2022-12-03T09:43:43.344Z,12.73
2022-12-03T09:46:37.589Z,12.93
2022-12-03T09:49:24.054Z,13.20
2022-12-03T09:52:17.482Z,13.52
2022-12-03T09:55:15.643Z,12.90
2022-12-03T09:58:01.416Z,12.90
2022-12-03T10:00:52.997Z,13.52
2022-12-03T10:03:42.060Z,13.07
2022-12-03T10:06:29.408Z,13.48
2022-12-03T10:09:21.568Z,13.63
2022-12-03T10:12:11.875Z,13.55
2022-12-03T10:15:02.220Z,13.60
2022-12-03T10:17:50.449Z,13.15
2022-12-03T10:20:36.152Z,13.63
2022-12-03T10:23:30.584Z,13.70
2022-12-03T10:26:17.160Z,13.18
2022-12-03T10:29:12.042Z,12.48
2022-12-03T10:32:00.352Z,14.07
2022-12-03T10:34:46.085Z,13.03
2022-12-03T10:37:32.688Z,12.60
2022-12-03T10:40:25.374Z,12.60
2022-12-03T10:43:30.435Z,13.13
2022-12-03T10:46:22.076Z,13.68
2022-12-03T10:49:19.444Z,13.43
2022-12-03T10:52:06.307Z,12.93
2022-12-03T10:54:52.384Z,13.13
2022-12-03T10:57:42.483Z,13.55
2022-12-03T11:00:31.549Z,13.70
2022-12-03T11:03:23.566Z,13.43
2022-12-03T11:06:18.589Z,12.63
2022-12-03T11:09:09.102Z,12.50
2022-12-03T11:11:55.742Z,13.30
2022-12-03T11:14:51.924Z,12.47
2022-12-03T11:17:51.444Z,12.23
2022-12-03T11:20:40.102Z,12.27
2022-12-03T11:23:58.823Z,21.95
2022-12-03T11:26:45.087Z,14.13
2022-12-03T11:29:58.837Z,12.13
2022-12-03T11:32:47.575Z,13.20
2022-12-03T11:35:57.350Z,12.50
2022-12-03T11:38:52.163Z,12.50
2022-12-03T11:41:38.510Z,13.48
2022-12-03T11:44:31.198Z,12.93
2022-12-03T11:47:18.056Z,13.23
2022-12-03T11:50:22.290Z,13.20
2022-12-03T11:53:11.579Z,14.02
2022-12-03T11:56:08.580Z,13.48
2022-12-03T11:59:03.398Z,13.63
2022-12-03T12:01:48.671Z,14.15
2022-12-03T12:04:37.884Z,14.27
2022-12-03T12:07:35.748Z,14.68
2022-12-03T12:10:42.529Z,14.57
2022-12-03T12:13:37.386Z,14.88
2022-12-03T12:16:58.383Z,14.02
2022-12-03T12:19:47.334Z,14.77
2022-12-03T12:22:35.528Z,13.80
2022-12-03T12:25:30.730Z,14.37
2022-12-03T12:28:16.898Z,13.93
2022-12-03T12:31:03.392Z,14.43
2022-12-03T12:33:49.216Z,14.07
2022-12-03T12:36:34.991Z,14.88
2022-12-03T12:39:21.784Z,15.18
2022-12-03T12:42:25.944Z,14.10
2022-12-03T12:45:18.390Z,14.98
2022-12-03T12:48:10.282Z,16.77
2022-12-03T12:51:12.019Z,14.38
2022-12-03T12:53:57.706Z,21.65
2022-12-03T12:56:45.446Z,17.95
2022-12-03T12:59:31.340Z,18.33
2022-12-03T13:02:26.430Z,15.77
2022-12-03T13:05:13.600Z,15.73
2022-12-03T13:07:59.503Z,13.05
2022-12-03T13:10:45.700Z,13.63
2022-12-03T13:13:44.340Z,12.32
2022-12-03T13:16:32.947Z,11.60
2022-12-03T13:19:26.012Z,11.80
2022-12-03T13:22:21.063Z,13.02
2022-12-03T13:25:57.348Z,12.80
2022-12-03T13:28:38.077Z,13.48
2022-12-03T13:31:28.552Z,12.40
2022-12-03T13:34:18.953Z,13.40
2022-12-03T13:37:14.049Z,12.10
2022-12-03T13:40:30.689Z,11.33
2022-12-03T13:43:20.039Z,12.18
2022-12-03T13:46:05.876Z,11.73
2022-12-03T13:48:52.141Z,13.00
2022-12-03T13:51:38.697Z,12.23
2022-12-03T13:54:29.031Z,12.27
2022-12-03T13:57:14.988Z,12.43
2022-12-03T14:00:00.971Z,13.13
2022-12-03T14:02:48.021Z,12.82
2022-12-03T14:05:34.364Z,12.43
2022-12-03T14:08:20.592Z,12.90
2022-12-03T14:11:07.159Z,11.38
2022-12-03T14:13:52.522Z,12.27
2022-12-03T14:16:38.618Z,12.52
2022-12-03T14:19:25.183Z,13.60
2022-12-03T14:22:11.049Z,14.73
2022-12-03T14:24:57.380Z,17.80
2022-12-03T14:27:43.309Z,19.40
2022-12-03T14:30:29.756Z,14.02
2022-12-03T14:33:16.581Z,14.02
2022-12-03T14:36:02.753Z,14.33
2022-12-03T14:38:48.603Z,14.40
2022-12-03T14:41:52.753Z,13.93
2022-12-03T14:44:38.758Z,13.40
2022-12-03T14:47:24.708Z,13.20
2022-12-03T14:50:14.144Z,13.77
2022-12-03T14:52:59.967Z,18.17
2022-12-03T14:55:48.067Z,15.48
2022-12-03T14:58:34.260Z,16.30
2022-12-03T15:01:20.001Z,15.18
2022-12-03T15:04:06.284Z,15.70
2022-12-03T15:06:52.269Z,15.32
2022-12-03T15:09:38.143Z,15.00
2022-12-03T15:12:24.544Z,14.70
2022-12-03T15:15:11.259Z,16.15
2022-12-03T15:17:56.956Z,15.77
2022-12-03T15:20:43.136Z,15.00
2022-12-03T15:23:29.411Z,15.02
2022-12-03T15:26:15.452Z,16.33
2022-12-03T15:29:00.968Z,15.50
2022-12-03T15:31:47.040Z,15.75
2022-12-03T15:34:32.611Z,15.63
2022-12-03T15:37:18.200Z,16.27
2022-12-03T15:40:05.018Z,16.35
2022-12-03T15:42:51.591Z,16.42
2022-12-03T15:45:38.259Z,16.20
2022-12-03T15:48:24.264Z,16.83
2022-12-03T15:51:12.648Z,15.27
2022-12-03T15:53:57.959Z,15.70
2022-12-03T15:56:44.101Z,14.82
2022-12-03T15:59:29.995Z,13.25
2022-12-03T16:02:15.676Z,13.55
2022-12-03T16:05:02.591Z,31.40
2022-12-03T16:07:48.600Z,13.05
2022-12-03T16:10:34.831Z,13.55
2022-12-03T16:13:22.762Z,13.43
2022-12-03T16:16:08.586Z,14.23
2022-12-03T16:18:54.964Z,13.75
2022-12-03T16:21:40.752Z,13.20
2022-12-03T16:24:27.715Z,14.13
2022-12-03T16:27:13.409Z,13.63
2022-12-03T16:29:59.120Z,14.45
2022-12-03T16:32:44.983Z,12.55
2022-12-03T16:35:30.851Z,13.32
2022-12-03T16:38:16.902Z,14.07
2022-12-03T16:41:03.273Z,14.70
2022-12-03T16:43:49.054Z,13.98
2022-12-03T16:46:35.268Z,14.77
2022-12-03T16:49:21.304Z,14.98
2022-12-03T16:52:07.735Z,14.90
2022-12-03T16:54:55.540Z,15.55
2022-12-03T16:57:41.709Z,13.45
2022-12-03T17:00:27.318Z,13.88
2022-12-03T17:03:13.498Z,13.57
2022-12-03T17:05:59.428Z,14.07
2022-12-03T17:08:49.638Z,14.43
2022-12-03T17:11:36.183Z,14.10
2022-12-03T17:14:21.691Z,13.57
2022-12-03T17:17:07.255Z,13.48
2022-12-03T17:19:53.987Z,14.02
2022-12-03T17:22:40.832Z,14.63
2022-12-03T17:25:27.721Z,13.45
2022-12-03T17:28:13.578Z,19.27
2022-12-03T17:30:59.853Z,17.17
2022-12-03T17:33:45.444Z,13.60
2022-12-03T17:36:31.364Z,13.75
2022-12-03T17:39:17.910Z,14.20
2022-12-03T17:42:04.282Z,14.38
2022-12-03T17:44:50.555Z,13.43
2022-12-03T17:47:36.751Z,13.55
2022-12-03T17:50:26.028Z,14.75
2022-12-03T17:53:12.702Z,13.75
2022-12-03T17:55:58.577Z,13.90
2022-12-03T17:58:44.756Z,14.18
2022-12-03T18:01:31.189Z,13.60
2022-12-03T18:04:17.097Z,13.93
2022-12-03T18:07:03.197Z,13.52
2022-12-03T18:09:48.735Z,14.02
2022-12-03T18:12:35.445Z,13.60
2022-12-03T18:15:21.683Z,13.15
2022-12-03T18:18:08.159Z,13.05
2022-12-03T18:20:54.159Z,13.23
2022-12-03T18:23:40.505Z,13.13
2022-12-03T18:26:27.136Z,12.63
2022-12-03T18:29:12.583Z,14.40
2022-12-03T18:31:58.656Z,13.20
2022-12-03T18:34:45.182Z,12.68
2022-12-03T18:37:33.024Z,12.13
2022-12-03T18:40:22.862Z,13.03
2022-12-03T18:43:13.713Z,12.55
2022-12-03T18:45:59.598Z,11.68
2022-12-03T18:48:48.369Z,12.93
2022-12-03T18:51:35.495Z,13.35
2022-12-03T18:54:21.387Z,12.43
2022-12-03T18:57:07.613Z,13.35
2022-12-03T18:59:56.869Z,12.37
2022-12-03T19:05:48.983Z,13.02
2022-12-03T19:08:35.459Z,12.40
2022-12-03T19:11:22.198Z,11.65
2022-12-03T19:14:10.921Z,12.55
2022-12-03T19:16:56.688Z,11.45
2022-12-03T19:19:42.489Z,11.98
2022-12-03T19:22:28.163Z,12.80
2022-12-03T19:25:13.803Z,11.45
2022-12-03T19:27:59.632Z,15.38
2022-12-03T19:30:46.342Z,14.30
2022-12-03T19:33:33.211Z,13.48
2022-12-03T19:36:24.870Z,12.65
2022-12-03T19:39:10.592Z,13.50
2022-12-03T19:41:56.876Z,12.30
2022-12-03T19:44:43.015Z,10.70
2022-12-03T19:47:29.560Z,11.18
2022-12-03T19:50:22.503Z,11.88
2022-12-03T19:53:08.785Z,12.35
2022-12-03T19:55:55.340Z,10.98
2022-12-03T19:58:42.814Z,12.45
2022-12-03T20:01:30.812Z,11.60
2022-12-03T20:04:17.266Z,11.85
2022-12-03T20:07:04.527Z,10.30
2022-12-03T20:09:52.062Z,11.00
2022-12-03T20:12:38.081Z,10.52
2022-12-03T20:15:23.685Z,9.60
2022-12-03T20:18:09.626Z,9.93
2022-12-03T20:21:00.104Z,10.73
2022-12-03T20:23:47.664Z,10.00
2022-12-03T20:26:33.453Z,10.60
2022-12-03T20:29:19.627Z,9.73
2022-12-03T20:32:07.004Z,9.93
2022-12-03T20:34:53.481Z,11.43
2022-12-03T20:37:39.571Z,10.40
2022-12-03T20:40:26.592Z,9.52
2022-12-03T20:43:12.197Z,9.03
2022-12-03T20:46:10.196Z,8.82
2022-12-03T20:48:56.856Z,8.95
2022-12-03T20:51:42.729Z,8.65
2022-12-03T20:54:28.806Z,8.95
2022-12-03T20:57:14.803Z,8.80
2022-12-03T21:00:00.788Z,9.40
2022-12-03T21:02:46.940Z,9.73
2022-12-03T21:05:32.949Z,10.02
2022-12-03T21:08:34.014Z,10.32
2022-12-03T21:11:27.124Z,9.77
2022-12-03T21:14:12.819Z,9.57
2022-12-03T21:17:08.504Z,11.07
2022-12-03T21:19:55.567Z,9.17
2022-12-03T21:22:41.226Z,9.68
2022-12-03T21:25:26.769Z,10.57
2022-12-03T21:28:12.615Z,9.25
2022-12-03T21:31:04.560Z,10.10
2022-12-03T21:33:51.079Z,9.37
2022-12-03T21:36:36.937Z,10.10
2022-12-03T21:39:22.575Z,9.60
2022-12-03T21:42:34.366Z,9.40
2022-12-03T21:45:15.155Z,9.45
2022-12-03T21:48:01.051Z,9.38
2022-12-03T21:50:57.079Z,9.97
2022-12-03T21:53:43.722Z,8.43
2022-12-03T21:56:31.952Z,9.00
2022-12-03T21:59:17.676Z,8.55
2022-12-03T22:02:03.530Z,8.98
2022-12-03T22:04:50.276Z,8.53
2022-12-03T22:07:37.578Z,9.68
2022-12-03T22:10:23.620Z,8.68
2022-12-03T22:13:09.942Z,9.38
2022-12-03T22:15:56.164Z,8.75
2022-12-03T22:18:42.268Z,8.23
2022-12-03T22:21:30.208Z,8.18
2022-12-03T22:24:16.200Z,8.57
2022-12-03T22:27:03.965Z,8.55
2022-12-03T22:29:49.443Z,9.00
2022-12-03T22:32:36.001Z,8.73
2022-12-03T22:35:22.086Z,8.65
2022-12-03T22:38:07.967Z,8.52
2022-12-03T22:40:53.985Z,9.60
2022-12-03T22:43:39.858Z,8.02
2022-12-03T22:46:25.787Z,8.38
2022-12-03T22:49:13.310Z,8.07
2022-12-03T22:51:59.039Z,7.88
2022-12-03T22:54:45.991Z,8.90
2022-12-03T22:57:32.017Z,7.97
2022-12-03T23:00:35.732Z,7.85
2022-12-03T23:03:22.160Z,7.72
2022-12-03T23:06:12.171Z,8.18
2022-12-03T23:08:59.131Z,7.93
2022-12-03T23:11:47.891Z,7.97
2022-12-03T23:14:34.377Z,6.57
2022-12-03T23:17:19.795Z,7.65
2022-12-03T23:20:06.251Z,6.45
2022-12-03T23:22:52.743Z,6.80
2022-12-03T23:25:38.846Z,6.00
2022-12-03T23:28:25.662Z,5.78
2022-12-03T23:31:19.385Z,6.38
2022-12-03T23:34:06.320Z,5.72
2022-12-03T23:36:52.063Z,6.65
2022-12-03T23:39:37.768Z,6.20
2022-12-03T23:42:23.749Z,6.30
2022-12-03T23:45:10.057Z,6.20
2022-12-03T23:47:58.314Z,6.33
2022-12-03T23:50:44.707Z,6.38
2022-12-03T23:53:30.647Z,6.85
2022-12-03T23:56:19.030Z,6.60
2022-12-03T23:59:04.854Z,6.68
